sensor_id;sensor_type;location;lat;lon;timestamp;P1;durP1;ratioP1;P2;durP2;ratioP2
59207;SDS011;44977;53.132;6.408;2023-09-30T00:02:21;15.85;;;5.18;;
59207;SDS011;44977;53.132;6.408;2023-09-30T00:07:22;16.63;;;5.50;;
59207;SDS011;44977;53.132;6.408;2023-09-30T00:12:23;16.50;;;5.22;;
59207;SDS011;44977;53.132;6.408;2023-09-30T00:17:23;13.77;;;5.15;;
59207;SDS011;44977;53.132;6.408;2023-09-30T00:22:24;13.65;;;5.18;;
59207;SDS011;44977;53.132;6.408;2023-09-30T00:27:25;15.65;;;4.85;;
59207;SDS011;44977;53.132;6.408;2023-09-30T00:32:26;12.95;;;4.38;;
59207;SDS011;44977;53.132;6.408;2023-09-30T00:37:26;12.00;;;4.68;;
59207;SDS011;44977;53.132;6.408;2023-09-30T00:42:27;12.90;;;4.45;;
59207;SDS011;44977;53.132;6.408;2023-09-30T00:47:28;16.85;;;4.68;;
59207;SDS011;44977;53.132;6.408;2023-09-30T00:52:29;12.68;;;4.40;;
59207;SDS011;44977;53.132;6.408;2023-09-30T00:57:32;13.13;;;4.85;;
59207;SDS011;44977;53.132;6.408;2023-09-30T01:02:34;14.25;;;4.82;;
59207;SDS011;44977;53.132;6.408;2023-09-30T01:07:37;12.88;;;4.72;;
59207;SDS011;44977;53.132;6.408;2023-09-30T01:12:38;13.63;;;4.82;;
59207;SDS011;44977;53.132;6.408;2023-09-30T01:17:39;12.63;;;5.43;;
59207;SDS011;44977;53.132;6.408;2023-09-30T01:22:39;12.82;;;5.22;;
59207;SDS011;44977;53.132;6.408;2023-09-30T01:27:40;12.35;;;5.00;;
59207;SDS011;44977;53.132;6.408;2023-09-30T01:32:41;14.70;;;5.32;;
59207;SDS011;44977;53.132;6.408;2023-09-30T01:37:42;15.32;;;5.20;;
59207;SDS011;44977;53.132;6.408;2023-09-30T01:42:43;15.27;;;5.90;;
59207;SDS011;44977;53.132;6.408;2023-09-30T01:47:45;12.55;;;5.07;;
59207;SDS011;44977;53.132;6.408;2023-09-30T01:52:46;17.05;;;5.80;;
59207;SDS011;44977;53.132;6.408;2023-09-30T01:57:46;12.43;;;4.95;;
59207;SDS011;44977;53.132;6.408;2023-09-30T02:02:47;14.07;;;5.70;;
59207;SDS011;44977;53.132;6.408;2023-09-30T02:07:48;13.30;;;5.00;;
59207;SDS011;44977;53.132;6.408;2023-09-30T02:12:49;11.60;;;4.85;;
59207;SDS011;44977;53.132;6.408;2023-09-30T02:17:49;13.52;;;4.38;;
59207;SDS011;44977;53.132;6.408;2023-09-30T02:22:50;10.93;;;4.43;;
59207;SDS011;44977;53.132;6.408;2023-09-30T02:27:51;11.70;;;4.72;;
59207;SDS011;44977;53.132;6.408;2023-09-30T02:32:52;11.07;;;4.80;;
59207;SDS011;44977;53.132;6.408;2023-09-30T02:37:52;10.95;;;4.50;;
59207;SDS011;44977;53.132;6.408;2023-09-30T02:42:54;12.55;;;4.63;;
59207;SDS011;44977;53.132;6.408;2023-09-30T02:47:54;12.50;;;4.60;;
59207;SDS011;44977;53.132;6.408;2023-09-30T02:52:55;10.38;;;4.00;;
59207;SDS011;44977;53.132;6.408;2023-09-30T02:57:56;11.98;;;4.25;;
59207;SDS011;44977;53.132;6.408;2023-09-30T03:02:59;9.88;;;3.83;;
59207;SDS011;44977;53.132;6.408;2023-09-30T03:08:04;11.30;;;4.20;;
59207;SDS011;44977;53.132;6.408;2023-09-30T03:13:05;12.02;;;3.97;;
59207;SDS011;44977;53.132;6.408;2023-09-30T03:18:06;11.68;;;4.20;;
59207;SDS011;44977;53.132;6.408;2023-09-30T03:23:06;11.38;;;3.85;;
59207;SDS011;44977;53.132;6.408;2023-09-30T03:28:08;12.07;;;4.32;;
59207;SDS011;44977;53.132;6.408;2023-09-30T03:33:09;9.95;;;4.30;;
59207;SDS011;44977;53.132;6.408;2023-09-30T03:38:10;11.75;;;4.07;;
59207;SDS011;44977;53.132;6.408;2023-09-30T03:43:16;12.25;;;4.03;;
59207;SDS011;44977;53.132;6.408;2023-09-30T03:48:17;9.52;;;3.80;;
59207;SDS011;44977;53.132;6.408;2023-09-30T03:53:18;12.43;;;4.25;;
59207;SDS011;44977;53.132;6.408;2023-09-30T03:58:20;11.63;;;4.45;;
59207;SDS011;44977;53.132;6.408;2023-09-30T04:03:21;11.10;;;4.05;;
59207;SDS011;44977;53.132;6.408;2023-09-30T04:08:22;11.07;;;4.40;;
59207;SDS011;44977;53.132;6.408;2023-09-30T04:13:23;12.13;;;4.65;;
59207;SDS011;44977;53.132;6.408;2023-09-30T04:18:24;13.20;;;4.32;;
59207;SDS011;44977;53.132;6.408;2023-09-30T04:23:26;13.50;;;4.55;;
59207;SDS011;44977;53.132;6.408;2023-09-30T04:28:27;12.05;;;5.22;;
59207;SDS011;44977;53.132;6.408;2023-09-30T04:33:28;14.38;;;5.63;;
59207;SDS011;44977;53.132;6.408;2023-09-30T04:38:29;11.00;;;5.40;;
59207;SDS011;44977;53.132;6.408;2023-09-30T04:43:31;11.98;;;5.72;;
59207;SDS011;44977;53.132;6.408;2023-09-30T04:48:32;14.35;;;6.18;;
59207;SDS011;44977;53.132;6.408;2023-09-30T04:53:33;12.80;;;6.15;;
59207;SDS011;44977;53.132;6.408;2023-09-30T04:58:34;16.50;;;6.20;;
59207;SDS011;44977;53.132;6.408;2023-09-30T05:03:35;16.80;;;7.28;;
59207;SDS011;44977;53.132;6.408;2023-09-30T05:08:36;15.30;;;6.50;;
59207;SDS011;44977;53.132;6.408;2023-09-30T05:13:36;12.45;;;6.88;;
59207;SDS011;44977;53.132;6.408;2023-09-30T05:18:37;16.50;;;7.07;;
59207;SDS011;44977;53.132;6.408;2023-09-30T05:23:38;15.38;;;6.88;;
59207;SDS011;44977;53.132;6.408;2023-09-30T05:28:39;17.38;;;7.20;;
59207;SDS011;44977;53.132;6.408;2023-09-30T05:33:39;14.20;;;7.80;;
59207;SDS011;44977;53.132;6.408;2023-09-30T05:38:40;14.00;;;7.20;;
59207;SDS011;44977;53.132;6.408;2023-09-30T05:43:42;16.77;;;8.07;;
59207;SDS011;44977;53.132;6.408;2023-09-30T05:48:43;16.88;;;7.97;;
59207;SDS011;44977;53.132;6.408;2023-09-30T05:53:44;15.60;;;7.90;;
59207;SDS011;44977;53.132;6.408;2023-09-30T05:58:47;15.65;;;8.50;;
59207;SDS011;44977;53.132;6.408;2023-09-30T06:03:48;15.02;;;8.45;;
59207;SDS011;44977;53.132;6.408;2023-09-30T06:08:49;15.93;;;7.95;;
59207;SDS011;44977;53.132;6.408;2023-09-30T06:13:50;14.73;;;8.00;;
59207;SDS011;44977;53.132;6.408;2023-09-30T06:18:53;16.30;;;8.77;;
59207;SDS011;44977;53.132;6.408;2023-09-30T06:23:54;15.70;;;9.30;;
59207;SDS011;44977;53.132;6.408;2023-09-30T06:28:55;16.85;;;9.43;;
59207;SDS011;44977;53.132;6.408;2023-09-30T06:33:56;18.58;;;9.70;;
59207;SDS011;44977;53.132;6.408;2023-09-30T06:38:58;18.60;;;9.63;;
59207;SDS011;44977;53.132;6.408;2023-09-30T06:43:59;16.15;;;10.40;;
59207;SDS011;44977;53.132;6.408;2023-09-30T06:48:59;18.88;;;9.40;;
59207;SDS011;44977;53.132;6.408;2023-09-30T06:54:00;15.85;;;10.40;;
59207;SDS011;44977;53.132;6.408;2023-09-30T06:59:04;18.08;;;10.00;;
59207;SDS011;44977;53.132;6.408;2023-09-30T07:04:06;16.10;;;11.07;;
59207;SDS011;44977;53.132;6.408;2023-09-30T07:09:07;18.83;;;10.88;;
59207;SDS011;44977;53.132;6.408;2023-09-30T07:14:09;15.85;;;10.40;;
59207;SDS011;44977;53.132;6.408;2023-09-30T07:19:10;18.98;;;11.38;;
59207;SDS011;44977;53.132;6.408;2023-09-30T07:24:11;17.33;;;11.60;;
59207;SDS011;44977;53.132;6.408;2023-09-30T07:29:11;19.58;;;12.32;;
59207;SDS011;44977;53.132;6.408;2023-09-30T07:34:12;18.50;;;12.20;;
59207;SDS011;44977;53.132;6.408;2023-09-30T07:39:13;18.90;;;11.65;;
59207;SDS011;44977;53.132;6.408;2023-09-30T07:44:13;15.93;;;11.38;;
59207;SDS011;44977;53.132;6.408;2023-09-30T07:49:14;19.58;;;12.50;;
59207;SDS011;44977;53.132;6.408;2023-09-30T07:54:15;17.45;;;11.80;;
59207;SDS011;44977;53.132;6.408;2023-09-30T07:59:17;15.60;;;10.88;;
59207;SDS011;44977;53.132;6.408;2023-09-30T08:04:19;17.15;;;10.30;;
59207;SDS011;44977;53.132;6.408;2023-09-30T08:09:19;16.65;;;11.43;;
59207;SDS011;44977;53.132;6.408;2023-09-30T08:14:23;17.10;;;10.52;;
59207;SDS011;44977;53.132;6.408;2023-09-30T08:19:23;15.30;;;9.60;;
59207;SDS011;44977;53.132;6.408;2023-09-30T08:24:24;16.45;;;10.23;;
59207;SDS011;44977;53.132;6.408;2023-09-30T08:29:25;15.95;;;9.68;;
59207;SDS011;44977;53.132;6.408;2023-09-30T08:34:26;15.18;;;9.73;;
59207;SDS011;44977;53.132;6.408;2023-09-30T08:39:27;15.57;;;9.45;;
59207;SDS011;44977;53.132;6.408;2023-09-30T08:44:28;19.30;;;10.40;;
59207;SDS011;44977;53.132;6.408;2023-09-30T08:49:30;14.25;;;9.32;;
59207;SDS011;44977;53.132;6.408;2023-09-30T08:54:38;16.73;;;9.38;;
59207;SDS011;44977;53.132;6.408;2023-09-30T08:59:40;16.45;;;9.43;;
59207;SDS011;44977;53.132;6.408;2023-09-30T09:04:42;15.68;;;10.15;;
59207;SDS011;44977;53.132;6.408;2023-09-30T09:10:02;16.38;;;8.65;;
59207;SDS011;44977;53.132;6.408;2023-09-30T09:20:41;14.38;;;6.72;;
59207;SDS011;44977;53.132;6.408;2023-09-30T09:25:41;13.32;;;7.40;;
59207;SDS011;44977;53.132;6.408;2023-09-30T09:30:42;11.75;;;6.53;;
59207;SDS011;44977;53.132;6.408;2023-09-30T09:35:43;12.18;;;5.80;;
59207;SDS011;44977;53.132;6.408;2023-09-30T09:40:48;13.25;;;5.35;;
59207;SDS011;44977;53.132;6.408;2023-09-30T09:45:49;13.82;;;5.03;;
59207;SDS011;44977;53.132;6.408;2023-09-30T09:50:50;12.00;;;4.15;;
59207;SDS011;44977;53.132;6.408;2023-09-30T09:55:51;13.68;;;4.43;;
59207;SDS011;44977;53.132;6.408;2023-09-30T10:00:53;11.75;;;4.22;;
59207;SDS011;44977;53.132;6.408;2023-09-30T10:05:57;11.48;;;3.72;;
59207;SDS011;44977;53.132;6.408;2023-09-30T10:10:58;10.18;;;3.97;;
59207;SDS011;44977;53.132;6.408;2023-09-30T10:16:00;10.25;;;3.70;;
59207;SDS011;44977;53.132;6.408;2023-09-30T10:21:07;12.48;;;3.70;;
59207;SDS011;44977;53.132;6.408;2023-09-30T10:31:14;10.35;;;2.67;;
59207;SDS011;44977;53.132;6.408;2023-09-30T10:36:24;8.70;;;2.17;;
59207;SDS011;44977;53.132;6.408;2023-09-30T10:46:46;8.93;;;2.33;;
59207;SDS011;44977;53.132;6.408;2023-09-30T10:51:47;9.07;;;2.40;;
59207;SDS011;44977;53.132;6.408;2023-09-30T10:56:49;7.90;;;2.20;;
59207;SDS011;44977;53.132;6.408;2023-09-30T11:01:50;8.75;;;2.03;;
59207;SDS011;44977;53.132;6.408;2023-09-30T11:06:52;8.80;;;2.20;;
59207;SDS011;44977;53.132;6.408;2023-09-30T11:11:53;10.68;;;2.50;;
59207;SDS011;44977;53.132;6.408;2023-09-30T11:16:54;9.23;;;2.10;;
59207;SDS011;44977;53.132;6.408;2023-09-30T11:21:59;9.75;;;2.72;;
59207;SDS011;44977;53.132;6.408;2023-09-30T11:27:00;9.00;;;2.13;;
59207;SDS011;44977;53.132;6.408;2023-09-30T11:32:01;9.32;;;2.20;;
59207;SDS011;44977;53.132;6.408;2023-09-30T11:37:03;8.20;;;2.13;;
59207;SDS011;44977;53.132;6.408;2023-09-30T11:42:12;12.75;;;2.55;;
59207;SDS011;44977;53.132;6.408;2023-09-30T11:47:28;12.13;;;2.47;;
59207;SDS011;44977;53.132;6.408;2023-09-30T11:52:34;7.15;;;1.98;;
59207;SDS011;44977;53.132;6.408;2023-09-30T11:57:36;7.15;;;1.80;;
59207;SDS011;44977;53.132;6.408;2023-09-30T12:02:36;10.38;;;2.38;;
59207;SDS011;44977;53.132;6.408;2023-09-30T12:07:40;8.50;;;1.90;;
59207;SDS011;44977;53.132;6.408;2023-09-30T12:12:42;8.48;;;2.10;;
59207;SDS011;44977;53.132;6.408;2023-09-30T12:17:42;10.10;;;2.65;;
59207;SDS011;44977;53.132;6.408;2023-09-30T12:22:43;11.88;;;2.45;;
59207;SDS011;44977;53.132;6.408;2023-09-30T12:27:44;7.50;;;2.10;;
59207;SDS011;44977;53.132;6.408;2023-09-30T12:32:46;10.18;;;2.20;;
59207;SDS011;44977;53.132;6.408;2023-09-30T12:37:47;8.27;;;2.00;;
59207;SDS011;44977;53.132;6.408;2023-09-30T12:42:47;8.20;;;2.22;;
59207;SDS011;44977;53.132;6.408;2023-09-30T12:47:49;8.77;;;2.45;;
59207;SDS011;44977;53.132;6.408;2023-09-30T12:52:52;9.70;;;2.13;;
59207;SDS011;44977;53.132;6.408;2023-09-30T12:57:53;8.85;;;1.92;;
59207;SDS011;44977;53.132;6.408;2023-09-30T13:02:54;7.80;;;1.98;;
59207;SDS011;44977;53.132;6.408;2023-09-30T13:07:55;7.97;;;2.10;;
59207;SDS011;44977;53.132;6.408;2023-09-30T13:12:56;8.50;;;2.20;;
59207;SDS011;44977;53.132;6.408;2023-09-30T13:17:57;7.60;;;2.08;;
59207;SDS011;44977;53.132;6.408;2023-09-30T13:22:59;8.75;;;2.00;;
59207;SDS011;44977;53.132;6.408;2023-09-30T13:28:00;7.88;;;1.92;;
59207;SDS011;44977;53.132;6.408;2023-09-30T13:33:01;7.53;;;1.90;;
59207;SDS011;44977;53.132;6.408;2023-09-30T13:38:02;8.27;;;1.90;;
59207;SDS011;44977;53.132;6.408;2023-09-30T13:43:04;6.47;;;1.70;;
59207;SDS011;44977;53.132;6.408;2023-09-30T13:48:05;7.35;;;1.90;;
59207;SDS011;44977;53.132;6.408;2023-09-30T13:53:06;8.23;;;2.20;;
59207;SDS011;44977;53.132;6.408;2023-09-30T13:58:07;8.00;;;1.90;;
59207;SDS011;44977;53.132;6.408;2023-09-30T14:03:08;7.85;;;1.90;;
59207;SDS011;44977;53.132;6.408;2023-09-30T14:08:08;8.38;;;1.77;;
59207;SDS011;44977;53.132;6.408;2023-09-30T14:13:09;7.40;;;1.70;;
59207;SDS011;44977;53.132;6.408;2023-09-30T14:18:10;7.88;;;2.00;;
59207;SDS011;44977;53.132;6.408;2023-09-30T14:23:11;7.60;;;2.10;;
59207;SDS011;44977;53.132;6.408;2023-09-30T14:28:12;8.50;;;2.00;;
59207;SDS011;44977;53.132;6.408;2023-09-30T14:33:13;10.25;;;2.33;;
59207;SDS011;44977;53.132;6.408;2023-09-30T14:38:14;8.27;;;1.92;;
59207;SDS011;44977;53.132;6.408;2023-09-30T14:43:15;8.93;;;1.83;;
59207;SDS011;44977;53.132;6.408;2023-09-30T14:48:16;8.80;;;1.75;;
59207;SDS011;44977;53.132;6.408;2023-09-30T14:53:16;8.20;;;1.90;;
59207;SDS011;44977;53.132;6.408;2023-09-30T14:58:17;7.65;;;2.10;;
59207;SDS011;44977;53.132;6.408;2023-09-30T15:03:19;7.20;;;1.80;;
59207;SDS011;44977;53.132;6.408;2023-09-30T15:08:22;7.40;;;1.92;;
59207;SDS011;44977;53.132;6.408;2023-09-30T15:13:23;9.82;;;2.45;;
59207;SDS011;44977;53.132;6.408;2023-09-30T15:18:24;7.13;;;2.20;;
59207;SDS011;44977;53.132;6.408;2023-09-30T15:23:24;8.45;;;2.47;;
59207;SDS011;44977;53.132;6.408;2023-09-30T15:28:25;8.30;;;2.28;;
59207;SDS011;44977;53.132;6.408;2023-09-30T15:33:27;9.40;;;2.13;;
59207;SDS011;44977;53.132;6.408;2023-09-30T15:38:28;8.80;;;2.50;;
59207;SDS011;44977;53.132;6.408;2023-09-30T15:43:32;8.60;;;2.50;;
59207;SDS011;44977;53.132;6.408;2023-09-30T15:48:33;8.07;;;2.28;;
59207;SDS011;44977;53.132;6.408;2023-09-30T15:53:34;8.63;;;2.53;;
59207;SDS011;44977;53.132;6.408;2023-09-30T15:58:36;9.27;;;2.67;;
59207;SDS011;44977;53.132;6.408;2023-09-30T16:03:36;10.60;;;2.40;;
59207;SDS011;44977;53.132;6.408;2023-09-30T16:08:37;8.38;;;2.10;;
59207;SDS011;44977;53.132;6.408;2023-09-30T16:13:38;10.63;;;2.60;;
59207;SDS011;44977;53.132;6.408;2023-09-30T16:18:42;12.18;;;3.10;;
59207;SDS011;44977;53.132;6.408;2023-09-30T16:23:45;10.73;;;3.83;;
59207;SDS011;44977;53.132;6.408;2023-09-30T16:28:45;13.40;;;5.75;;
59207;SDS011;44977;53.132;6.408;2023-09-30T16:33:46;10.50;;;4.43;;
59207;SDS011;44977;53.132;6.408;2023-09-30T16:38:47;9.45;;;3.95;;
59207;SDS011;44977;53.132;6.408;2023-09-30T16:43:47;11.20;;;3.58;;
59207;SDS011;44977;53.132;6.408;2023-09-30T16:48:48;9.23;;;2.97;;
59207;SDS011;44977;53.132;6.408;2023-09-30T16:53:49;8.82;;;2.92;;
59207;SDS011;44977;53.132;6.408;2023-09-30T16:58:50;9.13;;;2.78;;
59207;SDS011;44977;53.132;6.408;2023-09-30T17:03:50;11.57;;;3.10;;
59207;SDS011;44977;53.132;6.408;2023-09-30T17:08:51;10.07;;;3.00;;
59207;SDS011;44977;53.132;6.408;2023-09-30T17:13:52;9.93;;;3.15;;
59207;SDS011;44977;53.132;6.408;2023-09-30T17:18:53;8.32;;;2.35;;
59207;SDS011;44977;53.132;6.408;2023-09-30T17:23:54;9.38;;;2.83;;
59207;SDS011;44977;53.132;6.408;2023-09-30T17:28:55;9.27;;;2.60;;
59207;SDS011;44977;53.132;6.408;2023-09-30T17:33:56;9.52;;;2.85;;
59207;SDS011;44977;53.132;6.408;2023-09-30T17:38:56;8.65;;;2.80;;
59207;SDS011;44977;53.132;6.408;2023-09-30T17:43:58;9.70;;;3.35;;
59207;SDS011;44977;53.132;6.408;2023-09-30T17:48:59;11.35;;;4.70;;
59207;SDS011;44977;53.132;6.408;2023-09-30T17:53:59;10.95;;;3.35;;
59207;SDS011;44977;53.132;6.408;2023-09-30T17:59:00;11.23;;;3.35;;
59207;SDS011;44977;53.132;6.408;2023-09-30T18:04:01;9.68;;;3.10;;
59207;SDS011;44977;53.132;6.408;2023-09-30T18:09:03;9.43;;;2.80;;
59207;SDS011;44977;53.132;6.408;2023-09-30T18:14:04;10.48;;;3.15;;
59207;SDS011;44977;53.132;6.408;2023-09-30T18:19:06;9.23;;;2.97;;
59207;SDS011;44977;53.132;6.408;2023-09-30T18:24:08;12.38;;;4.38;;
59207;SDS011;44977;53.132;6.408;2023-09-30T18:29:08;11.15;;;3.80;;
59207;SDS011;44977;53.132;6.408;2023-09-30T18:34:10;14.25;;;4.60;;
59207;SDS011;44977;53.132;6.408;2023-09-30T18:39:10;12.05;;;3.55;;
59207;SDS011;44977;53.132;6.408;2023-09-30T18:44:12;14.93;;;4.53;;
59207;SDS011;44977;53.132;6.408;2023-09-30T18:49:12;12.00;;;5.13;;
59207;SDS011;44977;53.132;6.408;2023-09-30T18:54:13;13.98;;;7.05;;
59207;SDS011;44977;53.132;6.408;2023-09-30T18:59:15;13.13;;;7.32;;
59207;SDS011;44977;53.132;6.408;2023-09-30T19:04:20;11.20;;;6.43;;
59207;SDS011;44977;53.132;6.408;2023-09-30T19:09:21;11.50;;;5.38;;
59207;SDS011;44977;53.132;6.408;2023-09-30T19:14:21;10.55;;;4.53;;
59207;SDS011;44977;53.132;6.408;2023-09-30T19:19:23;11.68;;;4.38;;
59207;SDS011;44977;53.132;6.408;2023-09-30T19:24:24;13.43;;;5.53;;
59207;SDS011;44977;53.132;6.408;2023-09-30T19:29:25;11.20;;;4.78;;
59207;SDS011;44977;53.132;6.408;2023-09-30T19:34:26;12.38;;;5.18;;
59207;SDS011;44977;53.132;6.408;2023-09-30T19:39:27;12.00;;;4.80;;
59207;SDS011;44977;53.132;6.408;2023-09-30T19:44:29;13.68;;;4.50;;
59207;SDS011;44977;53.132;6.408;2023-09-30T19:49:30;11.35;;;4.25;;
59207;SDS011;44977;53.132;6.408;2023-09-30T19:54:30;11.95;;;4.28;;
59207;SDS011;44977;53.132;6.408;2023-09-30T19:59:31;11.43;;;3.97;;
59207;SDS011;44977;53.132;6.408;2023-09-30T20:04:32;9.55;;;4.00;;
59207;SDS011;44977;53.132;6.408;2023-09-30T20:09:32;12.48;;;4.20;;
59207;SDS011;44977;53.132;6.408;2023-09-30T20:14:35;12.18;;;4.38;;
59207;SDS011;44977;53.132;6.408;2023-09-30T20:19:36;10.35;;;4.18;;
59207;SDS011;44977;53.132;6.408;2023-09-30T20:24:36;12.65;;;4.55;;
59207;SDS011;44977;53.132;6.408;2023-09-30T20:29:37;11.88;;;4.40;;
59207;SDS011;44977;53.132;6.408;2023-09-30T20:34:38;10.45;;;3.97;;
59207;SDS011;44977;53.132;6.408;2023-09-30T20:39:39;12.95;;;4.63;;
59207;SDS011;44977;53.132;6.408;2023-09-30T20:44:40;11.60;;;4.68;;
59207;SDS011;44977;53.132;6.408;2023-09-30T20:49:40;13.40;;;4.32;;
59207;SDS011;44977;53.132;6.408;2023-09-30T20:54:41;11.50;;;4.70;;
59207;SDS011;44977;53.132;6.408;2023-09-30T20:59:42;12.68;;;4.55;;
59207;SDS011;44977;53.132;6.408;2023-09-30T21:04:43;12.93;;;4.97;;
59207;SDS011;44977;53.132;6.408;2023-09-30T21:09:44;11.27;;;4.45;;
59207;SDS011;44977;53.132;6.408;2023-09-30T21:14:45;12.57;;;4.95;;
59207;SDS011;44977;53.132;6.408;2023-09-30T21:19:46;12.15;;;5.10;;
59207;SDS011;44977;53.132;6.408;2023-09-30T21:24:47;12.30;;;4.85;;
59207;SDS011;44977;53.132;6.408;2023-09-30T21:29:48;12.05;;;4.65;;
59207;SDS011;44977;53.132;6.408;2023-09-30T21:34:48;10.77;;;4.95;;
59207;SDS011;44977;53.132;6.408;2023-09-30T21:39:49;13.55;;;4.78;;
59207;SDS011;44977;53.132;6.408;2023-09-30T21:44:50;13.85;;;4.50;;
59207;SDS011;44977;53.132;6.408;2023-09-30T21:49:51;11.13;;;4.90;;
59207;SDS011;44977;53.132;6.408;2023-09-30T21:54:52;15.20;;;4.93;;
59207;SDS011;44977;53.132;6.408;2023-09-30T21:59:53;11.55;;;4.88;;
59207;SDS011;44977;53.132;6.408;2023-09-30T22:04:54;16.42;;;5.53;;
59207;SDS011;44977;53.132;6.408;2023-09-30T22:09:55;11.38;;;5.07;;
59207;SDS011;44977;53.132;6.408;2023-09-30T22:14:56;12.93;;;5.30;;
59207;SDS011;44977;53.132;6.408;2023-09-30T22:19:56;13.60;;;5.30;;
59207;SDS011;44977;53.132;6.408;2023-09-30T22:24:57;12.38;;;5.43;;
59207;SDS011;44977;53.132;6.408;2023-09-30T22:29:59;12.18;;;4.78;;
59207;SDS011;44977;53.132;6.408;2023-09-30T22:35:00;12.18;;;5.35;;
59207;SDS011;44977;53.132;6.408;2023-09-30T22:40:00;11.90;;;5.22;;
59207;SDS011;44977;53.132;6.408;2023-09-30T22:45:03;14.10;;;5.38;;
59207;SDS011;44977;53.132;6.408;2023-09-30T22:50:06;13.80;;;5.22;;
59207;SDS011;44977;53.132;6.408;2023-09-30T22:55:20;11.77;;;4.78;;
59207;SDS011;44977;53.132;6.408;2023-09-30T23:00:22;11.80;;;4.70;;
59207;SDS011;44977;53.132;6.408;2023-09-30T23:05:27;12.88;;;5.10;;
59207;SDS011;44977;53.132;6.408;2023-09-30T23:10:28;12.93;;;5.28;;
59207;SDS011;44977;53.132;6.408;2023-09-30T23:15:28;11.20;;;4.85;;
59207;SDS011;44977;53.132;6.408;2023-09-30T23:20:29;12.63;;;5.10;;
59207;SDS011;44977;53.132;6.408;2023-09-30T23:25:30;12.95;;;5.30;;
59207;SDS011;44977;53.132;6.408;2023-09-30T23:30:34;11.88;;;5.25;;
59207;SDS011;44977;53.132;6.408;2023-09-30T23:35:35;13.85;;;5.72;;
59207;SDS011;44977;53.132;6.408;2023-09-30T23:40:37;11.60;;;5.03;;
59207;SDS011;44977;53.132;6.408;2023-09-30T23:45:37;11.45;;;4.63;;
59207;SDS011;44977;53.132;6.408;2023-09-30T23:50:38;11.90;;;4.57;;
59207;SDS011;44977;53.132;6.408;2023-09-30T23:55:40;11.48;;;4.43;;
